sensor_id;sensor_type;location;lat;lon;timestamp;P1;durP1;ratioP1;P2;durP2;ratioP2
36855;SDS011;22788;51.434;6.786;2024-03-23T00:54:09;9.93;;;3.13;;
36855;SDS011;22788;51.434;6.786;2024-03-23T00:56:35;12.43;;;3.27;;
36855;SDS011;22788;51.434;6.786;2024-03-23T00:59:00;10.20;;;3.47;;
36855;SDS011;22788;51.434;6.786;2024-03-23T01:01:26;7.63;;;3.17;;
36855;SDS011;22788;51.434;6.786;2024-03-23T01:03:52;11.17;;;3.20;;
36855;SDS011;22788;51.434;6.786;2024-03-23T01:06:19;7.33;;;2.87;;
36855;SDS011;22788;51.434;6.786;2024-03-23T01:08:44;8.80;;;2.80;;
36855;SDS011;22788;51.434;6.786;2024-03-23T01:11:10;8.60;;;2.77;;
36855;SDS011;22788;51.434;6.786;2024-03-23T01:13:35;6.67;;;2.57;;
36855;SDS011;22788;51.434;6.786;2024-03-23T01:16:01;7.87;;;3.13;;
36855;SDS011;22788;51.434;6.786;2024-03-23T01:18:27;9.23;;;2.77;;
36855;SDS011;22788;51.434;6.786;2024-03-23T01:20:52;6.93;;;2.97;;
36855;SDS011;22788;51.434;6.786;2024-03-23T01:23:19;9.90;;;2.70;;
36855;SDS011;22788;51.434;6.786;2024-03-23T01:25:51;5.57;;;2.47;;
36855;SDS011;22788;51.434;6.786;2024-03-23T01:28:17;5.03;;;2.53;;
36855;SDS011;22788;51.434;6.786;2024-03-23T01:30:42;9.20;;;2.90;;
36855;SDS011;22788;51.434;6.786;2024-03-23T01:33:08;6.30;;;2.27;;
36855;SDS011;22788;51.434;6.786;2024-03-23T01:35:33;5.80;;;2.60;;
36855;SDS011;22788;51.434;6.786;2024-03-23T01:37:59;8.13;;;2.40;;
36855;SDS011;22788;51.434;6.786;2024-03-23T01:40:26;8.20;;;2.60;;
36855;SDS011;22788;51.434;6.786;2024-03-23T01:42:55;8.60;;;2.60;;
36855;SDS011;22788;51.434;6.786;2024-03-23T01:45:20;8.07;;;2.40;;
36855;SDS011;22788;51.434;6.786;2024-03-23T01:47:46;6.30;;;2.30;;
36855;SDS011;22788;51.434;6.786;2024-03-23T01:50:12;7.00;;;2.80;;
36855;SDS011;22788;51.434;6.786;2024-03-23T01:52:38;9.00;;;2.30;;
36855;SDS011;22788;51.434;6.786;2024-03-23T01:55:04;6.90;;;2.17;;
36855;SDS011;22788;51.434;6.786;2024-03-23T01:57:31;11.10;;;2.37;;
36855;SDS011;22788;51.434;6.786;2024-03-23T01:59:57;5.37;;;2.30;;
36855;SDS011;22788;51.434;6.786;2024-03-23T02:02:23;6.73;;;2.60;;
36855;SDS011;22788;51.434;6.786;2024-03-23T02:04:48;5.80;;;2.00;;
36855;SDS011;22788;51.434;6.786;2024-03-23T02:07:14;6.73;;;1.97;;
36855;SDS011;22788;51.434;6.786;2024-03-23T02:09:39;7.40;;;2.77;;
36855;SDS011;22788;51.434;6.786;2024-03-23T02:12:05;7.27;;;2.10;;
36855;SDS011;22788;51.434;6.786;2024-03-23T02:14:33;6.20;;;2.43;;
36855;SDS011;22788;51.434;6.786;2024-03-23T02:16:59;3.53;;;2.00;;
36855;SDS011;22788;51.434;6.786;2024-03-23T02:19:24;4.97;;;2.17;;
36855;SDS011;22788;51.434;6.786;2024-03-23T02:21:50;6.77;;;2.40;;
36855;SDS011;22788;51.434;6.786;2024-03-23T02:24:17;4.73;;;2.80;;
36855;SDS011;22788;51.434;6.786;2024-03-23T02:26:42;3.20;;;1.93;;
36855;SDS011;22788;51.434;6.786;2024-03-23T02:29:08;8.77;;;2.37;;
36855;SDS011;22788;51.434;6.786;2024-03-23T02:31:33;6.50;;;2.63;;
36855;SDS011;22788;51.434;6.786;2024-03-23T02:33:59;5.47;;;2.03;;
36855;SDS011;22788;51.434;6.786;2024-03-23T02:36:24;5.33;;;2.13;;
36855;SDS011;22788;51.434;6.786;2024-03-23T02:38:50;6.43;;;1.97;;
36855;SDS011;22788;51.434;6.786;2024-03-23T02:41:17;4.90;;;1.90;;
36855;SDS011;22788;51.434;6.786;2024-03-23T02:43:43;5.33;;;1.90;;
36855;SDS011;22788;51.434;6.786;2024-03-23T02:46:08;2.67;;;1.73;;
36855;SDS011;22788;51.434;6.786;2024-03-23T02:48:34;3.83;;;2.20;;
36855;SDS011;22788;51.434;6.786;2024-03-23T02:50:59;4.20;;;2.10;;
36855;SDS011;22788;51.434;6.786;2024-03-23T02:53:25;7.87;;;2.23;;
36855;SDS011;22788;51.434;6.786;2024-03-23T02:55:50;7.87;;;2.13;;
36855;SDS011;22788;51.434;6.786;2024-03-23T02:58:17;7.13;;;2.20;;
36855;SDS011;22788;51.434;6.786;2024-03-23T03:00:43;8.30;;;2.30;;
36855;SDS011;22788;51.434;6.786;2024-03-23T03:03:09;6.07;;;1.97;;
36855;SDS011;22788;51.434;6.786;2024-03-23T03:05:34;8.00;;;2.23;;
36855;SDS011;22788;51.434;6.786;2024-03-23T03:08:00;5.83;;;1.87;;
36855;SDS011;22788;51.434;6.786;2024-03-23T03:10:25;6.73;;;2.17;;
36855;SDS011;22788;51.434;6.786;2024-03-23T03:12:51;6.20;;;2.40;;
36855;SDS011;22788;51.434;6.786;2024-03-23T03:15:18;6.00;;;2.57;;
36855;SDS011;22788;51.434;6.786;2024-03-23T03:17:44;7.83;;;2.30;;
36855;SDS011;22788;51.434;6.786;2024-03-23T03:20:10;5.87;;;2.33;;
36855;SDS011;22788;51.434;6.786;2024-03-23T03:22:35;4.63;;;2.13;;
36855;SDS011;22788;51.434;6.786;2024-03-23T03:25:01;4.70;;;2.00;;
36855;SDS011;22788;51.434;6.786;2024-03-23T03:27:26;3.70;;;1.77;;
36855;SDS011;22788;51.434;6.786;2024-03-23T03:29:52;6.87;;;1.97;;
36855;SDS011;22788;51.434;6.786;2024-03-23T03:32:19;3.17;;;1.80;;
36855;SDS011;22788;51.434;6.786;2024-03-23T03:34:44;5.13;;;1.83;;
36855;SDS011;22788;51.434;6.786;2024-03-23T03:37:10;5.93;;;2.10;;
36855;SDS011;22788;51.434;6.786;2024-03-23T03:39:36;5.50;;;1.80;;
36855;SDS011;22788;51.434;6.786;2024-03-23T03:42:01;9.43;;;2.53;;
36855;SDS011;22788;51.434;6.786;2024-03-23T03:44:27;5.90;;;2.23;;
36855;SDS011;22788;51.434;6.786;2024-03-23T03:46:53;5.27;;;2.37;;
36855;SDS011;22788;51.434;6.786;2024-03-23T03:49:20;6.10;;;2.07;;
36855;SDS011;22788;51.434;6.786;2024-03-23T03:51:45;3.10;;;1.60;;
36855;SDS011;22788;51.434;6.786;2024-03-23T03:54:11;4.83;;;2.00;;
36855;SDS011;22788;51.434;6.786;2024-03-23T03:56:36;7.80;;;2.37;;
36855;SDS011;22788;51.434;6.786;2024-03-23T03:59:02;7.77;;;2.20;;
36855;SDS011;22788;51.434;6.786;2024-03-23T04:01:27;3.30;;;1.87;;
36855;SDS011;22788;51.434;6.786;2024-03-23T04:03:53;4.60;;;2.30;;
36855;SDS011;22788;51.434;6.786;2024-03-23T04:06:20;6.03;;;1.90;;
36855;SDS011;22788;51.434;6.786;2024-03-23T04:08:46;6.87;;;2.23;;
36855;SDS011;22788;51.434;6.786;2024-03-23T04:11:11;5.90;;;2.60;;
36855;SDS011;22788;51.434;6.786;2024-03-23T04:13:37;4.90;;;2.10;;
36855;SDS011;22788;51.434;6.786;2024-03-23T04:16:03;4.47;;;2.07;;
36855;SDS011;22788;51.434;6.786;2024-03-23T04:18:29;4.83;;;1.90;;
36855;SDS011;22788;51.434;6.786;2024-03-23T04:20:54;6.80;;;2.40;;
36855;SDS011;22788;51.434;6.786;2024-03-23T04:23:22;6.20;;;2.20;;
36855;SDS011;22788;51.434;6.786;2024-03-23T04:25:48;6.03;;;1.87;;
36855;SDS011;22788;51.434;6.786;2024-03-23T04:28:14;3.60;;;2.10;;
36855;SDS011;22788;51.434;6.786;2024-03-23T04:30:40;8.90;;;2.30;;
36855;SDS011;22788;51.434;6.786;2024-03-23T04:33:06;4.53;;;2.40;;
36855;SDS011;22788;51.434;6.786;2024-03-23T04:35:32;7.17;;;2.10;;
36855;SDS011;22788;51.434;6.786;2024-03-23T04:37:58;7.90;;;2.30;;
36855;SDS011;22788;51.434;6.786;2024-03-23T04:40:25;7.67;;;2.17;;
36855;SDS011;22788;51.434;6.786;2024-03-23T04:42:50;5.07;;;2.13;;
36855;SDS011;22788;51.434;6.786;2024-03-23T04:45:16;6.63;;;2.37;;
36855;SDS011;22788;51.434;6.786;2024-03-23T04:47:41;2.93;;;1.50;;
36855;SDS011;22788;51.434;6.786;2024-03-23T04:50:07;3.70;;;1.90;;
36855;SDS011;22788;51.434;6.786;2024-03-23T04:52:34;4.87;;;2.23;;
36855;SDS011;22788;51.434;6.786;2024-03-23T04:54:59;5.53;;;2.10;;
36855;SDS011;22788;51.434;6.786;2024-03-23T04:57:26;6.23;;;2.53;;
36855;SDS011;22788;51.434;6.786;2024-03-23T04:59:52;3.37;;;2.07;;
36855;SDS011;22788;51.434;6.786;2024-03-23T05:02:17;8.97;;;2.43;;
36855;SDS011;22788;51.434;6.786;2024-03-23T05:04:43;6.33;;;2.07;;
36855;SDS011;22788;51.434;6.786;2024-03-23T05:07:08;7.23;;;2.30;;
36855;SDS011;22788;51.434;6.786;2024-03-23T05:09:34;6.57;;;2.40;;
36855;SDS011;22788;51.434;6.786;2024-03-23T05:12:00;5.87;;;2.30;;
36855;SDS011;22788;51.434;6.786;2024-03-23T05:14:27;5.90;;;2.10;;
36855;SDS011;22788;51.434;6.786;2024-03-23T05:16:52;7.13;;;2.37;;
36855;SDS011;22788;51.434;6.786;2024-03-23T05:19:18;5.50;;;2.10;;
36855;SDS011;22788;51.434;6.786;2024-03-23T05:21:43;6.93;;;2.30;;
36855;SDS011;22788;51.434;6.786;2024-03-23T05:24:09;9.03;;;3.17;;
36855;SDS011;22788;51.434;6.786;2024-03-23T05:26:35;6.23;;;2.40;;
36855;SDS011;22788;51.434;6.786;2024-03-23T05:29:00;6.40;;;2.23;;
36855;SDS011;22788;51.434;6.786;2024-03-23T05:31:28;5.80;;;2.40;;
36855;SDS011;22788;51.434;6.786;2024-03-23T05:33:54;5.57;;;2.50;;
36855;SDS011;22788;51.434;6.786;2024-03-23T05:36:20;7.50;;;3.03;;
36855;SDS011;22788;51.434;6.786;2024-03-23T05:38:46;8.23;;;2.83;;
36855;SDS011;22788;51.434;6.786;2024-03-23T05:41:12;9.63;;;3.37;;
36855;SDS011;22788;51.434;6.786;2024-03-23T05:43:37;5.00;;;2.80;;
36855;SDS011;22788;51.434;6.786;2024-03-23T05:46:03;5.30;;;2.90;;
36855;SDS011;22788;51.434;6.786;2024-03-23T05:48:31;7.53;;;2.73;;
36855;SDS011;22788;51.434;6.786;2024-03-23T05:50:56;6.63;;;3.20;;
36855;SDS011;22788;51.434;6.786;2024-03-23T05:53:23;7.77;;;2.90;;
36855;SDS011;22788;51.434;6.786;2024-03-23T05:55:49;6.23;;;3.20;;
36855;SDS011;22788;51.434;6.786;2024-03-23T05:58:15;6.70;;;3.73;;
36855;SDS011;22788;51.434;6.786;2024-03-23T06:00:41;9.33;;;2.97;;
36855;SDS011;22788;51.434;6.786;2024-03-23T06:03:07;7.53;;;3.17;;
36855;SDS011;22788;51.434;6.786;2024-03-23T06:05:34;5.80;;;2.67;;
36855;SDS011;22788;51.434;6.786;2024-03-23T06:07:59;8.70;;;2.90;;
36855;SDS011;22788;51.434;6.786;2024-03-23T06:10:25;6.13;;;3.27;;
36855;SDS011;22788;51.434;6.786;2024-03-23T06:12:51;6.77;;;3.17;;
36855;SDS011;22788;51.434;6.786;2024-03-23T06:15:16;6.93;;;3.30;;
36855;SDS011;22788;51.434;6.786;2024-03-23T06:17:42;5.67;;;2.67;;
36855;SDS011;22788;51.434;6.786;2024-03-23T06:20:08;9.63;;;3.47;;
36855;SDS011;22788;51.434;6.786;2024-03-23T06:22:36;7.13;;;3.17;;
36855;SDS011;22788;51.434;6.786;2024-03-23T06:25:01;9.17;;;3.10;;
36855;SDS011;22788;51.434;6.786;2024-03-23T06:27:27;6.50;;;3.20;;
36855;SDS011;22788;51.434;6.786;2024-03-23T06:29:53;8.87;;;3.10;;
36855;SDS011;22788;51.434;6.786;2024-03-23T06:32:18;11.30;;;3.73;;
36855;SDS011;22788;51.434;6.786;2024-03-23T06:34:44;7.47;;;3.27;;
36855;SDS011;22788;51.434;6.786;2024-03-23T06:37:09;9.83;;;3.97;;
36855;SDS011;22788;51.434;6.786;2024-03-23T06:39:36;5.67;;;3.23;;
36855;SDS011;22788;51.434;6.786;2024-03-23T06:42:02;9.60;;;3.10;;
36855;SDS011;22788;51.434;6.786;2024-03-23T06:44:28;11.47;;;4.30;;
36855;SDS011;22788;51.434;6.786;2024-03-23T06:46:54;8.07;;;3.20;;
36855;SDS011;22788;51.434;6.786;2024-03-23T06:49:19;8.57;;;3.50;;
36855;SDS011;22788;51.434;6.786;2024-03-23T06:51:45;10.50;;;3.93;;
36855;SDS011;22788;51.434;6.786;2024-03-23T06:54:10;11.90;;;3.67;;
36855;SDS011;22788;51.434;6.786;2024-03-23T06:56:37;8.63;;;3.70;;
36855;SDS011;22788;51.434;6.786;2024-03-23T06:59:03;11.13;;;3.87;;
36855;SDS011;22788;51.434;6.786;2024-03-23T07:01:29;9.43;;;4.10;;
36855;SDS011;22788;51.434;6.786;2024-03-23T07:03:55;10.70;;;4.67;;
36855;SDS011;22788;51.434;6.786;2024-03-23T07:06:20;9.10;;;4.20;;
36855;SDS011;22788;51.434;6.786;2024-03-23T07:08:48;5.83;;;3.50;;
36855;SDS011;22788;51.434;6.786;2024-03-23T07:11:17;10.33;;;4.10;;
36855;SDS011;22788;51.434;6.786;2024-03-23T07:13:45;7.67;;;3.90;;
36855;SDS011;22788;51.434;6.786;2024-03-23T07:16:11;8.63;;;3.57;;
36855;SDS011;22788;51.434;6.786;2024-03-23T07:18:36;7.23;;;3.57;;
36855;SDS011;22788;51.434;6.786;2024-03-23T07:21:02;10.23;;;3.60;;
36855;SDS011;22788;51.434;6.786;2024-03-23T07:23:28;9.10;;;4.07;;
36855;SDS011;22788;51.434;6.786;2024-03-23T07:25:57;6.13;;;3.30;;
36855;SDS011;22788;51.434;6.786;2024-03-23T07:28:22;8.37;;;3.70;;
36855;SDS011;22788;51.434;6.786;2024-03-23T07:30:49;9.47;;;4.30;;
36855;SDS011;22788;51.434;6.786;2024-03-23T07:33:27;11.57;;;4.80;;
36855;SDS011;22788;51.434;6.786;2024-03-23T07:35:53;8.07;;;4.50;;
36855;SDS011;22788;51.434;6.786;2024-03-23T07:38:19;9.97;;;3.77;;
36855;SDS011;22788;51.434;6.786;2024-03-23T07:40:44;6.93;;;3.97;;
36855;SDS011;22788;51.434;6.786;2024-03-23T07:43:10;10.33;;;3.53;;
36855;SDS011;22788;51.434;6.786;2024-03-23T07:45:36;6.87;;;3.73;;
36855;SDS011;22788;51.434;6.786;2024-03-23T07:48:03;7.50;;;3.37;;
36855;SDS011;22788;51.434;6.786;2024-03-23T07:50:28;11.37;;;4.20;;
36855;SDS011;22788;51.434;6.786;2024-03-23T07:52:54;9.77;;;3.90;;
36855;SDS011;22788;51.434;6.786;2024-03-23T07:55:20;10.67;;;4.07;;
36855;SDS011;22788;51.434;6.786;2024-03-23T07:57:45;9.10;;;3.20;;
36855;SDS011;22788;51.434;6.786;2024-03-23T08:00:11;8.03;;;4.57;;
36855;SDS011;22788;51.434;6.786;2024-03-23T08:02:38;10.43;;;3.73;;
36855;SDS011;22788;51.434;6.786;2024-03-23T08:05:05;8.27;;;4.10;;
36855;SDS011;22788;51.434;6.786;2024-03-23T08:07:31;9.93;;;4.10;;
36855;SDS011;22788;51.434;6.786;2024-03-23T08:09:56;10.83;;;4.07;;
36855;SDS011;22788;51.434;6.786;2024-03-23T08:12:22;8.00;;;4.27;;
36855;SDS011;22788;51.434;6.786;2024-03-23T08:14:47;8.47;;;3.90;;
36855;SDS011;22788;51.434;6.786;2024-03-23T08:17:13;15.90;;;4.30;;
36855;SDS011;22788;51.434;6.786;2024-03-23T08:19:39;10.00;;;4.03;;
36855;SDS011;22788;51.434;6.786;2024-03-23T08:22:06;5.87;;;3.50;;
36855;SDS011;22788;51.434;6.786;2024-03-23T08:24:32;9.40;;;3.70;;
36855;SDS011;22788;51.434;6.786;2024-03-23T08:27:00;9.87;;;3.90;;
36855;SDS011;22788;51.434;6.786;2024-03-23T08:29:26;11.00;;;4.07;;
36855;SDS011;22788;51.434;6.786;2024-03-23T08:31:51;7.63;;;3.80;;
36855;SDS011;22788;51.434;6.786;2024-03-23T08:34:17;8.70;;;4.10;;
36855;SDS011;22788;51.434;6.786;2024-03-23T08:36:42;7.47;;;3.73;;
36855;SDS011;22788;51.434;6.786;2024-03-23T08:39:09;9.17;;;4.03;;
36855;SDS011;22788;51.434;6.786;2024-03-23T08:41:35;8.73;;;3.53;;
36855;SDS011;22788;51.434;6.786;2024-03-23T08:44:01;9.70;;;4.50;;
36855;SDS011;22788;51.434;6.786;2024-03-23T08:46:26;9.47;;;3.93;;
36855;SDS011;22788;51.434;6.786;2024-03-23T08:48:52;13.30;;;3.53;;
36855;SDS011;22788;51.434;6.786;2024-03-23T08:51:18;9.63;;;4.10;;
36855;SDS011;22788;51.434;6.786;2024-03-23T08:53:44;8.17;;;3.73;;
36855;SDS011;22788;51.434;6.786;2024-03-23T08:56:12;9.47;;;4.40;;
36855;SDS011;22788;51.434;6.786;2024-03-23T08:58:38;12.13;;;4.50;;
36855;SDS011;22788;51.434;6.786;2024-03-23T09:01:06;8.60;;;4.00;;
36855;SDS011;22788;51.434;6.786;2024-03-23T09:03:32;13.37;;;4.50;;
36855;SDS011;22788;51.434;6.786;2024-03-23T09:05:58;10.37;;;4.07;;
36855;SDS011;22788;51.434;6.786;2024-03-23T09:08:24;7.10;;;3.73;;
36855;SDS011;22788;51.434;6.786;2024-03-23T09:10:50;10.70;;;4.33;;
36855;SDS011;22788;51.434;6.786;2024-03-23T09:13:18;9.73;;;4.70;;
36855;SDS011;22788;51.434;6.786;2024-03-23T09:15:45;10.33;;;4.80;;
36855;SDS011;22788;51.434;6.786;2024-03-23T09:18:12;12.13;;;5.63;;
36855;SDS011;22788;51.434;6.786;2024-03-23T09:20:38;7.33;;;4.33;;
36855;SDS011;22788;51.434;6.786;2024-03-23T09:23:04;10.33;;;4.80;;
36855;SDS011;22788;51.434;6.786;2024-03-23T09:25:30;14.93;;;5.90;;
36855;SDS011;22788;51.434;6.786;2024-03-23T09:27:56;11.57;;;5.20;;
36855;SDS011;22788;51.434;6.786;2024-03-23T09:30:23;13.33;;;4.67;;
36855;SDS011;22788;51.434;6.786;2024-03-23T09:32:49;11.40;;;5.47;;
36855;SDS011;22788;51.434;6.786;2024-03-23T09:35:15;13.27;;;4.87;;
36855;SDS011;22788;51.434;6.786;2024-03-23T09:37:41;7.90;;;4.80;;
36855;SDS011;22788;51.434;6.786;2024-03-23T09:40:08;8.53;;;4.10;;
36855;SDS011;22788;51.434;6.786;2024-03-23T09:42:35;9.97;;;3.60;;
36855;SDS011;22788;51.434;6.786;2024-03-23T09:45:01;12.53;;;4.03;;
36855;SDS011;22788;51.434;6.786;2024-03-23T09:47:28;9.83;;;3.87;;
36855;SDS011;22788;51.434;6.786;2024-03-23T09:49:55;7.77;;;3.80;;
36855;SDS011;22788;51.434;6.786;2024-03-23T09:52:21;6.37;;;3.17;;
36855;SDS011;22788;51.434;6.786;2024-03-23T09:54:47;9.60;;;3.50;;
36855;SDS011;22788;51.434;6.786;2024-03-23T09:57:13;10.53;;;3.23;;
36855;SDS011;22788;51.434;6.786;2024-03-23T09:59:39;7.97;;;3.43;;
36855;SDS011;22788;51.434;6.786;2024-03-23T10:02:04;8.43;;;3.43;;
36855;SDS011;22788;51.434;6.786;2024-03-23T10:04:38;7.37;;;2.87;;
36855;SDS011;22788;51.434;6.786;2024-03-23T10:07:10;7.63;;;2.90;;
36855;SDS011;22788;51.434;6.786;2024-03-23T10:09:36;8.67;;;2.83;;
36855;SDS011;22788;51.434;6.786;2024-03-23T10:12:07;10.53;;;3.17;;
36855;SDS011;22788;51.434;6.786;2024-03-23T10:14:33;10.17;;;3.43;;
36855;SDS011;22788;51.434;6.786;2024-03-23T10:17:06;9.90;;;2.63;;
36855;SDS011;22788;51.434;6.786;2024-03-23T10:19:38;9.33;;;3.20;;
36855;SDS011;22788;51.434;6.786;2024-03-23T10:22:04;10.57;;;2.90;;
36855;SDS011;22788;51.434;6.786;2024-03-23T10:24:31;7.93;;;2.70;;
36855;SDS011;22788;51.434;6.786;2024-03-23T10:26:57;9.97;;;3.00;;
36855;SDS011;22788;51.434;6.786;2024-03-23T10:29:22;8.10;;;2.87;;
36855;SDS011;22788;51.434;6.786;2024-03-23T10:31:48;4.13;;;2.50;;
36855;SDS011;22788;51.434;6.786;2024-03-23T10:34:13;10.73;;;2.43;;
36855;SDS011;22788;51.434;6.786;2024-03-23T10:36:41;5.03;;;2.43;;
36855;SDS011;22788;51.434;6.786;2024-03-23T10:39:07;6.60;;;3.03;;
36855;SDS011;22788;51.434;6.786;2024-03-23T10:41:32;6.80;;;1.63;;
36855;SDS011;22788;51.434;6.786;2024-03-23T10:44:00;4.30;;;1.80;;
36855;SDS011;22788;51.434;6.786;2024-03-23T10:46:27;5.77;;;2.50;;
36855;SDS011;22788;51.434;6.786;2024-03-23T10:48:52;9.77;;;2.20;;
36855;SDS011;22788;51.434;6.786;2024-03-23T10:51:18;6.07;;;2.67;;
36855;SDS011;22788;51.434;6.786;2024-03-23T10:53:45;2.90;;;1.63;;
36855;SDS011;22788;51.434;6.786;2024-03-23T10:56:12;6.67;;;2.07;;
36855;SDS011;22788;51.434;6.786;2024-03-23T10:58:41;5.63;;;2.03;;
36855;SDS011;22788;51.434;6.786;2024-03-23T11:01:10;3.77;;;1.60;;
36855;SDS011;22788;51.434;6.786;2024-03-23T11:03:36;4.80;;;1.90;;
36855;SDS011;22788;51.434;6.786;2024-03-23T11:06:03;6.07;;;1.90;;
36855;SDS011;22788;51.434;6.786;2024-03-23T11:08:30;3.73;;;1.80;;
36855;SDS011;22788;51.434;6.786;2024-03-23T11:13:54;5.27;;;1.50;;
36855;SDS011;22788;51.434;6.786;2024-03-23T11:16:22;2.80;;;1.50;;
36855;SDS011;22788;51.434;6.786;2024-03-23T11:18:48;7.20;;;1.73;;
36855;SDS011;22788;51.434;6.786;2024-03-23T11:24:13;2.93;;;2.00;;
36855;SDS011;22788;51.434;6.786;2024-03-23T11:26:39;4.60;;;1.90;;
36855;SDS011;22788;51.434;6.786;2024-03-23T11:31:49;5.77;;;1.90;;
36855;SDS011;22788;51.434;6.786;2024-03-23T11:34:15;4.97;;;2.60;;
36855;SDS011;22788;51.434;6.786;2024-03-23T11:36:41;4.80;;;1.97;;
36855;SDS011;22788;51.434;6.786;2024-03-23T11:39:13;3.40;;;1.93;;
36855;SDS011;22788;51.434;6.786;2024-03-23T11:41:46;3.47;;;1.70;;
36855;SDS011;22788;51.434;6.786;2024-03-23T11:44:16;5.13;;;2.53;;
36855;SDS011;22788;51.434;6.786;2024-03-23T11:46:43;4.20;;;2.50;;
36855;SDS011;22788;51.434;6.786;2024-03-23T11:49:19;3.83;;;1.80;;
36855;SDS011;22788;51.434;6.786;2024-03-23T11:51:46;3.47;;;1.90;;
36855;SDS011;22788;51.434;6.786;2024-03-23T11:54:12;3.53;;;1.80;;
36855;SDS011;22788;51.434;6.786;2024-03-23T11:56:37;5.80;;;2.03;;
36855;SDS011;22788;51.434;6.786;2024-03-23T11:59:03;2.53;;;1.40;;
36855;SDS011;22788;51.434;6.786;2024-03-23T12:01:28;3.57;;;2.37;;
36855;SDS011;22788;51.434;6.786;2024-03-23T12:03:56;6.50;;;2.00;;
36855;SDS011;22788;51.434;6.786;2024-03-23T12:06:21;6.57;;;1.83;;
36855;SDS011;22788;51.434;6.786;2024-03-23T12:08:47;4.90;;;1.80;;
36855;SDS011;22788;51.434;6.786;2024-03-23T12:11:13;5.87;;;1.63;;
36855;SDS011;22788;51.434;6.786;2024-03-23T12:13:40;1.90;;;1.47;;
36855;SDS011;22788;51.434;6.786;2024-03-23T12:16:10;5.13;;;1.73;;
36855;SDS011;22788;51.434;6.786;2024-03-23T12:18:36;6.37;;;2.07;;
36855;SDS011;22788;51.434;6.786;2024-03-23T12:21:04;3.37;;;1.77;;
36855;SDS011;22788;51.434;6.786;2024-03-23T12:23:29;4.40;;;1.73;;
36855;SDS011;22788;51.434;6.786;2024-03-23T12:25:55;5.90;;;1.70;;
36855;SDS011;22788;51.434;6.786;2024-03-23T12:28:20;4.67;;;1.63;;
36855;SDS011;22788;51.434;6.786;2024-03-23T12:30:46;4.83;;;2.07;;
36855;SDS011;22788;51.434;6.786;2024-03-23T12:33:12;3.07;;;1.90;;
36855;SDS011;22788;51.434;6.786;2024-03-23T12:35:37;3.07;;;1.60;;
36855;SDS011;22788;51.434;6.786;2024-03-23T12:38:04;7.17;;;2.30;;
36855;SDS011;22788;51.434;6.786;2024-03-23T12:40:30;4.20;;;1.80;;
36855;SDS011;22788;51.434;6.786;2024-03-23T12:42:55;6.63;;;2.13;;
36855;SDS011;22788;51.434;6.786;2024-03-23T12:45:21;5.60;;;2.40;;
36855;SDS011;22788;51.434;6.786;2024-03-23T12:47:47;1.63;;;1.40;;
36855;SDS011;22788;51.434;6.786;2024-03-23T12:50:12;3.03;;;1.63;;
36855;SDS011;22788;51.434;6.786;2024-03-23T12:52:38;3.97;;;1.60;;
36855;SDS011;22788;51.434;6.786;2024-03-23T12:55:06;1.77;;;1.20;;
36855;SDS011;22788;51.434;6.786;2024-03-23T12:57:32;6.32;;;1.80;;
36855;SDS011;22788;51.434;6.786;2024-03-23T12:59:58;5.43;;;1.37;;
36855;SDS011;22788;51.434;6.786;2024-03-23T13:02:24;4.20;;;1.58;;
36855;SDS011;22788;51.434;6.786;2024-03-23T13:04:50;4.93;;;1.40;;
36855;SDS011;22788;51.434;6.786;2024-03-23T13:07:16;2.53;;;1.57;;
36855;SDS011;22788;51.434;6.786;2024-03-23T13:09:42;8.23;;;1.90;;
36855;SDS011;22788;51.434;6.786;2024-03-23T13:12:10;7.53;;;2.47;;
36855;SDS011;22788;51.434;6.786;2024-03-23T13:14:36;3.37;;;1.90;;
36855;SDS011;22788;51.434;6.786;2024-03-23T13:17:01;4.50;;;2.23;;
36855;SDS011;22788;51.434;6.786;2024-03-23T13:19:27;4.27;;;2.20;;
36855;SDS011;22788;51.434;6.786;2024-03-23T13:21:53;4.73;;;1.93;;
36855;SDS011;22788;51.434;6.786;2024-03-23T13:24:21;2.80;;;2.30;;
36855;SDS011;22788;51.434;6.786;2024-03-23T13:26:47;4.87;;;1.90;;
36855;SDS011;22788;51.434;6.786;2024-03-23T13:29:14;7.03;;;1.83;;
36855;SDS011;22788;51.434;6.786;2024-03-23T13:31:39;9.93;;;1.83;;
36855;SDS011;22788;51.434;6.786;2024-03-23T13:34:05;4.00;;;2.40;;
36855;SDS011;22788;51.434;6.786;2024-03-23T13:36:31;4.23;;;1.50;;
36855;SDS011;22788;51.434;6.786;2024-03-23T13:38:56;4.23;;;1.90;;
36855;SDS011;22788;51.434;6.786;2024-03-23T13:41:22;3.63;;;1.73;;
36855;SDS011;22788;51.434;6.786;2024-03-23T13:43:48;3.60;;;1.97;;
36855;SDS011;22788;51.434;6.786;2024-03-23T13:46:15;4.20;;;1.87;;
36855;SDS011;22788;51.434;6.786;2024-03-23T13:48:41;4.90;;;1.70;;
36855;SDS011;22788;51.434;6.786;2024-03-23T13:51:06;2.57;;;1.30;;
36855;SDS011;22788;51.434;6.786;2024-03-23T13:53:32;4.03;;;1.50;;
36855;SDS011;22788;51.434;6.786;2024-03-23T13:55:58;6.40;;;1.70;;
36855;SDS011;22788;51.434;6.786;2024-03-23T13:58:23;2.43;;;1.63;;
36855;SDS011;22788;51.434;6.786;2024-03-23T14:00:49;2.20;;;1.40;;
36855;SDS011;22788;51.434;6.786;2024-03-23T14:03:16;3.17;;;1.43;;
36855;SDS011;22788;51.434;6.786;2024-03-23T14:05:42;1.80;;;1.37;;
36855;SDS011;22788;51.434;6.786;2024-03-23T14:08:08;3.83;;;1.60;;
36855;SDS011;22788;51.434;6.786;2024-03-23T14:10:34;2.10;;;1.20;;
36855;SDS011;22788;51.434;6.786;2024-03-23T14:13:00;4.53;;;1.30;;
36855;SDS011;22788;51.434;6.786;2024-03-23T14:15:26;9.23;;;1.53;;
36855;SDS011;22788;51.434;6.786;2024-03-23T14:17:52;2.87;;;1.20;;
36855;SDS011;22788;51.434;6.786;2024-03-23T14:20:19;2.07;;;1.20;;
36855;SDS011;22788;51.434;6.786;2024-03-23T14:22:45;1.93;;;1.13;;
36855;SDS011;22788;51.434;6.786;2024-03-23T14:25:10;3.53;;;1.40;;
36855;SDS011;22788;51.434;6.786;2024-03-23T14:27:36;9.13;;;1.60;;
36855;SDS011;22788;51.434;6.786;2024-03-23T14:30:01;6.57;;;1.63;;
36855;SDS011;22788;51.434;6.786;2024-03-23T14:32:27;3.70;;;1.37;;
36855;SDS011;22788;51.434;6.786;2024-03-23T14:34:53;3.93;;;1.40;;
36855;SDS011;22788;51.434;6.786;2024-03-23T14:37:20;2.73;;;1.30;;
36855;SDS011;22788;51.434;6.786;2024-03-23T14:39:45;1.77;;;0.90;;
36855;SDS011;22788;51.434;6.786;2024-03-23T14:42:11;1.57;;;1.40;;
36855;SDS011;22788;51.434;6.786;2024-03-23T14:44:36;4.90;;;1.50;;
36855;SDS011;22788;51.434;6.786;2024-03-23T14:47:02;3.37;;;1.30;;
36855;SDS011;22788;51.434;6.786;2024-03-23T14:49:28;1.33;;;1.20;;
36855;SDS011;22788;51.434;6.786;2024-03-23T14:51:53;5.13;;;1.30;;
36855;SDS011;22788;51.434;6.786;2024-03-23T14:54:20;4.07;;;1.43;;
36855;SDS011;22788;51.434;6.786;2024-03-23T14:56:46;3.43;;;1.50;;
36855;SDS011;22788;51.434;6.786;2024-03-23T14:59:12;2.93;;;1.63;;
36855;SDS011;22788;51.434;6.786;2024-03-23T15:01:37;2.33;;;1.60;;
36855;SDS011;22788;51.434;6.786;2024-03-23T15:04:03;5.57;;;1.77;;
36855;SDS011;22788;51.434;6.786;2024-03-23T15:06:29;3.33;;;1.50;;
36855;SDS011;22788;51.434;6.786;2024-03-23T15:08:54;4.30;;;1.67;;
36855;SDS011;22788;51.434;6.786;2024-03-23T15:11:21;3.90;;;1.50;;
36855;SDS011;22788;51.434;6.786;2024-03-23T15:13:49;8.13;;;1.60;;
36855;SDS011;22788;51.434;6.786;2024-03-23T15:16:16;3.50;;;1.57;;
36855;SDS011;22788;51.434;6.786;2024-03-23T15:18:42;4.00;;;2.07;;
36855;SDS011;22788;51.434;6.786;2024-03-23T15:21:08;3.10;;;1.50;;
36855;SDS011;22788;51.434;6.786;2024-03-23T15:23:33;2.17;;;1.50;;
36855;SDS011;22788;51.434;6.786;2024-03-23T15:25:59;2.50;;;1.27;;
36855;SDS011;22788;51.434;6.786;2024-03-23T15:28:27;3.33;;;1.50;;
36855;SDS011;22788;51.434;6.786;2024-03-23T15:30:57;5.87;;;1.60;;
36855;SDS011;22788;51.434;6.786;2024-03-23T15:33:23;2.23;;;1.53;;
36855;SDS011;22788;51.434;6.786;2024-03-23T15:35:49;3.63;;;2.13;;
36855;SDS011;22788;51.434;6.786;2024-03-23T15:38:15;3.83;;;1.90;;
36855;SDS011;22788;51.434;6.786;2024-03-23T15:40:40;3.40;;;1.27;;